Ankang, China
Current Conditions -  °F | °C
As of 7:00 PM on Sunday 21 Dec 2014 (Local Time) from ZLXY Reporting Station
Clear Clear  
Wind Chill: 25°   Ceiling: Unl
Heat Index: 25°   Visibility: 4mi
Dew Point:   Wind: 2mph
Humidity: 46%   Direction: 220°SW
Pressure: 30.45"   Gusts: NA
Location:  32.68°N, 109.02°E
Report Text: ZLXY 211100Z 22001MPS 7000 NSC M04/M14 Q1031 NOSIG
Loading
Personal Weather Stations






























Interactive Weather Map New forecast layout! Learn more

10-Day Weather Forecast

Advertisements
Track Severe Weather on mobile